Time;durP1;ratioP1;P1;durP2;ratioP2;P2;SDS_P1;SDS_P2;PMS_P1;PMS_P2;Temp;Humidity;BMP_temperature;BMP_pressure;BME280_temperature;BME280_humidity;BME280_pressure;Samples;Min_cycle;Max_cycle;Signal;HPM_P1;HPM_P2
2022/05/27 00:00:05;;;;;;;;;;;24.30;93.20;;;;;;4869566;29;19932;-62
2022/05/27 00:02:32;;;;;;;;;;;24.30;93.30;;;;;;4859900;29;19939;-62
2022/05/27 00:05:00;;;;;;;;;;;24.30;93.30;;;;;;4859987;29;20324;-62
2022/05/27 00:07:27;;;;;;;;;;;24.30;93.30;;;;;;4858298;29;19943;-63
2022/05/27 00:09:54;;;;;;;;;;;24.30;93.30;;;;;;4870257;29;19936;-63
2022/05/27 00:12:21;;;;;;;;;;;24.30;93.30;;;;;;4873771;29;20301;-62
2022/05/27 00:14:48;;;;;;;;;;;24.20;93.20;;;;;;4845812;29;19935;-63
2022/05/27 00:17:16;;;;;;;;;;;24.30;93.20;;;;;;4864659;29;19932;-62
2022/05/27 00:19:43;;;;;;;;;;;24.30;93.20;;;;;;4866733;29;20684;-62
2022/05/27 00:22:10;;;;;;;;;;;24.20;93.20;;;;;;4883150;29;20109;-63
2022/05/27 00:24:37;;;;;;;;;;;24.20;93.30;;;;;;4849910;29;19932;-62
2022/05/27 00:27:07;;;;;;;;;;;24.20;93.20;;;;;;4863004;29;19972;-61
2022/05/27 00:29:35;;;;;;;;;;;24.20;93.20;;;;;;4860132;29;20363;-63
2022/05/27 00:32:22;;;;;;;;;;;24.20;93.30;;;;;;4870440;29;20380;-62
2022/05/27 00:34:49;;;;;;;;;;;24.20;93.40;;;;;;4862648;29;19939;-62
2022/05/27 00:37:17;;;;;;;;;;;24.20;93.70;;;;;;4868296;29;19936;-62
2022/05/27 00:39:44;;;;;;;;;;;24.20;93.40;;;;;;4863656;29;19939;-64
2022/05/27 00:42:11;;;;;;;;;;;24.20;93.40;;;;;;4865364;29;19932;-63
2022/05/27 00:44:38;;;;;;;;;;;24.20;93.40;;;;;;4850353;29;19940;-63
2022/05/27 00:47:10;;;;;;;;;;;24.20;93.40;;;;;;4857558;29;19948;-60
2022/05/27 00:49:42;;;;;;;;;;;24.20;93.40;;;;;;4877685;29;19943;-63
2022/05/27 00:52:10;;;;;;;;;;;24.20;93.40;;;;;;4875603;29;19928;-63
2022/05/27 00:54:38;;;;;;;;;;;24.20;93.30;;;;;;4859405;29;19932;-63
2022/05/27 00:57:25;;;;;;;;;;;24.20;93.40;;;;;;4856440;29;19958;-61
2022/05/27 00:59:56;;;;;;;;;;;24.20;93.30;;;;;;4859252;29;19932;-62
2022/05/27 01:02:23;;;;;;;;;;;24.20;93.30;;;;;;4863228;29;19935;-63
2022/05/27 01:04:50;;;;;;;;;;;24.20;93.50;;;;;;4857822;29;19947;-63
2022/05/27 01:07:18;;;;;;;;;;;24.20;93.40;;;;;;4867083;29;19928;-62
2022/05/27 01:09:47;;;;;;;;;;;24.20;93.50;;;;;;4861304;29;19935;-62
2022/05/27 01:12:23;;;;;;;;;;;24.20;93.50;;;;;;4878917;29;19932;-63
2022/05/27 01:14:56;;;;;;;;;;;24.20;93.50;;;;;;4866292;29;19931;-61
2022/05/27 01:17:27;;;;;;;;;;;24.20;93.50;;;;;;4858551;29;19931;-62
2022/05/27 01:20:19;;;;;;;;;;;24.20;93.50;;;;;;4885627;29;19950;-60
2022/05/27 01:23:04;;;;;;;;;;;24.20;93.50;;;;;;4858021;29;20747;-63
2022/05/27 01:25:43;;;;;;;;;;;24.20;93.60;;;;;;4869840;29;19935;-62
2022/05/27 01:28:22;;;;;;;;;;;24.20;93.50;;;;;;4874785;29;19931;-62
2022/05/27 01:30:53;;;;;;;;;;;24.10;93.50;;;;;;4866244;29;20005;-62
2022/05/27 01:33:20;;;;;;;;;;;24.10;93.50;;;;;;4865115;29;19932;-63
2022/05/27 01:36:06;;;;;;;;;;;24.20;93.60;;;;;;4862944;29;19931;-62
2022/05/27 01:38:36;;;;;;;;;;;24.20;93.50;;;;;;4863086;29;19980;-63
2022/05/27 01:41:06;;;;;;;;;;;24.10;93.60;;;;;;4852638;29;19928;-63
2022/05/27 01:43:36;;;;;;;;;;;24.10;93.50;;;;;;4860820;29;19929;-63
2022/05/27 01:46:13;;;;;;;;;;;24.10;93.50;;;;;;4842836;29;20336;-62
2022/05/27 01:48:55;;;;;;;;;;;24.10;93.60;;;;;;4852858;29;20010;-63
2022/05/27 01:51:27;;;;;;;;;;;24.10;93.60;;;;;;4862090;29;19943;-63
2022/05/27 01:53:58;;;;;;;;;;;24.10;93.60;;;;;;4860457;29;20427;-63
2022/05/27 01:56:39;;;;;;;;;;;24.10;93.60;;;;;;4866932;29;19932;-62
2022/05/27 01:59:09;;;;;;;;;;;24.10;93.60;;;;;;4863197;29;19943;-61
2022/05/27 02:01:38;;;;;;;;;;;24.10;93.60;;;;;;4868509;29;19935;-63
2022/05/27 02:04:24;;;;;;;;;;;24.10;93.60;;;;;;4852892;29;19928;-64
2022/05/27 02:06:55;;;;;;;;;;;24.00;93.60;;;;;;4852569;29;19936;-61
2022/05/27 02:09:26;;;;;;;;;;;24.10;93.70;;;;;;4859610;29;19932;-62
2022/05/27 02:11:56;;;;;;;;;;;24.10;93.60;;;;;;4863551;29;19932;-61
2022/05/27 02:14:35;;;;;;;;;;;24.10;93.70;;;;;;4878123;29;19928;-61
2022/05/27 02:17:06;;;;;;;;;;;24.10;93.70;;;;;;4867344;29;19932;-63
2022/05/27 02:19:48;;;;;;;;;;;24.10;93.70;;;;;;4872031;29;20399;-62
2022/05/27 02:22:17;;;;;;;;;;;24.00;93.70;;;;;;4878108;29;20562;-62
2022/05/27 02:24:50;;;;;;;;;;;24.10;93.80;;;;;;4868928;29;19958;-63
2022/05/27 02:27:20;;;;;;;;;;;24.00;93.70;;;;;;4873107;29;19954;-62
2022/05/27 02:29:51;;;;;;;;;;;24.10;93.60;;;;;;4878695;29;19938;-62
2022/05/27 02:32:24;;;;;;;;;;;24.10;93.70;;;;;;4871222;29;19928;-64
2022/05/27 02:35:10;;;;;;;;;;;24.10;93.70;;;;;;4878433;29;19935;-63
2022/05/27 02:37:48;;;;;;;;;;;24.10;93.80;;;;;;4874483;29;19932;-63
2022/05/27 02:40:20;;;;;;;;;;;24.10;93.70;;;;;;4870186;29;19928;-63
2022/05/27 02:42:52;;;;;;;;;;;24.00;93.70;;;;;;4867485;29;19939;-62
2022/05/27 02:45:20;;;;;;;;;;;24.10;93.70;;;;;;4869420;29;19931;-64
2022/05/27 02:47:56;;;;;;;;;;;24.00;93.70;;;;;;4859744;29;19931;-64
2022/05/27 02:50:37;;;;;;;;;;;24.00;93.60;;;;;;4863115;29;19935;-64
2022/05/27 02:53:13;;;;;;;;;;;24.10;93.70;;;;;;4857902;29;19932;-64
2022/05/27 02:55:59;;;;;;;;;;;24.00;93.60;;;;;;4860538;29;20337;-63
2022/05/27 02:58:28;;;;;;;;;;;24.00;93.60;;;;;;4856355;29;19932;-63
2022/05/27 03:00:55;;;;;;;;;;;24.00;93.60;;;;;;4876806;29;19941;-63
2022/05/27 03:03:23;;;;;;;;;;;24.00;93.70;;;;;;4866922;29;19944;-63
2022/05/27 03:05:50;;;;;;;;;;;24.00;93.80;;;;;;4897867;29;19931;-62
2022/05/27 03:08:32;;;;;;;;;;;24.00;93.80;;;;;;4865675;29;19932;-63
2022/05/27 03:11:08;;;;;;;;;;;24.00;93.80;;;;;;4881650;29;19931;-63
2022/05/27 03:13:35;;;;;;;;;;;24.00;93.80;;;;;;4859887;29;19982;-63
2022/05/27 03:16:07;;;;;;;;;;;24.00;93.80;;;;;;4860623;29;19947;-62
2022/05/27 03:18:40;;;;;;;;;;;24.00;93.80;;;;;;4870822;29;19959;-62
2022/05/27 03:21:18;;;;;;;;;;;24.00;93.80;;;;;;4884524;29;19954;-63
2022/05/27 03:23:51;;;;;;;;;;;24.00;93.80;;;;;;4872535;29;19936;-63
2022/05/27 03:26:18;;;;;;;;;;;24.00;93.80;;;;;;4871083;29;19928;-61
2022/05/27 03:28:53;;;;;;;;;;;24.00;93.80;;;;;;4874738;29;20004;-61
2022/05/27 03:31:33;;;;;;;;;;;24.00;93.80;;;;;;4861489;29;20425;-62
2022/05/27 03:34:23;;;;;;;;;;;23.90;93.80;;;;;;4869819;29;20292;-62
2022/05/27 03:36:57;;;;;;;;;;;23.90;93.70;;;;;;4868790;29;19932;-64
2022/05/27 03:39:28;;;;;;;;;;;23.90;93.60;;;;;;4870148;29;20652;-64
2022/05/27 03:42:05;;;;;;;;;;;23.90;93.50;;;;;;4878683;29;20680;-63
2022/05/27 03:44:32;;;;;;;;;;;23.90;93.50;;;;;;4879725;29;19937;-63
2022/05/27 03:46:59;;;;;;;;;;;23.90;93.50;;;;;;4854899;29;19936;-62
2022/05/27 03:49:27;;;;;;;;;;;23.90;93.50;;;;;;4864746;29;19931;-64
2022/05/27 03:52:17;;;;;;;;;;;23.90;93.50;;;;;;4880965;29;20411;-62
2022/05/27 03:54:44;;;;;;;;;;;23.90;93.50;;;;;;4875605;29;19932;-62
2022/05/27 03:57:11;;;;;;;;;;;23.90;93.50;;;;;;4862458;29;19935;-62
2022/05/27 03:59:38;;;;;;;;;;;23.90;93.50;;;;;;4865995;29;20466;-62
2022/05/27 04:02:05;;;;;;;;;;;23.90;93.50;;;;;;4859334;29;19927;-65
2022/05/27 04:04:32;;;;;;;;;;;23.90;93.50;;;;;;4875931;29;19936;-66
2022/05/27 04:07:00;;;;;;;;;;;23.60;90.50;;;;;;4875886;29;19938;-65
2022/05/27 04:09:27;;;;;;;;;;;23.30;90.60;;;;;;4871460;29;19943;-66
2022/05/27 04:11:55;;;;;;;;;;;23.10;90.10;;;;;;4876784;29;19928;-65
2022/05/27 04:14:22;;;;;;;;;;;22.90;90.20;;;;;;4880971;29;20452;-66
2022/05/27 04:16:49;;;;;;;;;;;22.80;90.20;;;;;;4876489;29;19932;-63
2022/05/27 04:19:17;;;;;;;;;;;22.80;91.20;;;;;;4883511;29;19932;-61
2022/05/27 04:21:44;;;;;;;;;;;23.00;92.00;;;;;;4878456;29;19932;-61
2022/05/27 04:24:11;;;;;;;;;;;23.20;91.70;;;;;;4872493;29;20399;-63
2022/05/27 04:26:39;;;;;;;;;;;23.40;91.90;;;;;;4859037;29;19928;-60
2022/05/27 04:29:06;;;;;;;;;;;23.50;91.50;;;;;;4865321;29;20311;-62
2022/05/27 04:31:33;;;;;;;;;;;23.50;91.40;;;;;;4868493;29;19932;-60
2022/05/27 04:34:00;;;;;;;;;;;23.60;91.50;;;;;;4877911;29;20331;-60
2022/05/27 04:36:27;;;;;;;;;;;23.60;91.60;;;;;;4873840;29;19947;-59
2022/05/27 04:38:54;;;;;;;;;;;23.60;91.50;;;;;;4866195;29;19934;-59
2022/05/27 04:41:24;;;;;;;;;;;23.60;91.60;;;;;;4870173;29;19928;-62
2022/05/27 04:43:51;;;;;;;;;;;23.60;91.60;;;;;;4876063;29;19928;-63
2022/05/27 04:46:19;;;;;;;;;;;23.60;91.60;;;;;;4869145;29;19928;-64
2022/05/27 04:48:46;;;;;;;;;;;23.60;91.70;;;;;;4865321;29;20041;-64
2022/05/27 04:51:13;;;;;;;;;;;23.70;92.90;;;;;;4854581;29;19951;-65
2022/05/27 04:53:40;;;;;;;;;;;23.70;93.10;;;;;;4872183;29;19943;-61
2022/05/27 04:56:09;;;;;;;;;;;23.70;93.80;;;;;;4875404;29;19932;-63
2022/05/27 04:58:36;;;;;;;;;;;23.80;94.80;;;;;;4873119;29;19928;-65
2022/05/27 05:01:03;;;;;;;;;;;23.90;95.10;;;;;;4877902;29;20298;-65
2022/05/27 05:03:30;;;;;;;;;;;23.90;95.10;;;;;;4872603;29;20415;-63
2022/05/27 05:05:57;;;;;;;;;;;23.90;95.40;;;;;;4875567;29;20391;-63
2022/05/27 05:08:33;;;;;;;;;;;23.90;96.00;;;;;;4873383;29;19932;-61
2022/05/27 05:11:01;;;;;;;;;;;23.90;95.90;;;;;;4856915;29;19963;-62
2022/05/27 05:13:29;;;;;;;;;;;23.90;96.10;;;;;;4851899;29;19932;-62
2022/05/27 05:15:57;;;;;;;;;;;23.90;96.00;;;;;;4846093;29;19928;-61
2022/05/27 05:18:24;;;;;;;;;;;23.90;95.90;;;;;;4850365;29;19929;-60
2022/05/27 05:20:52;;;;;;;;;;;23.90;95.90;;;;;;4858452;29;20028;-61
2022/05/27 05:23:19;;;;;;;;;;;23.90;96.00;;;;;;4844210;29;19932;-58
2022/05/27 05:25:46;;;;;;;;;;;23.80;95.90;;;;;;4852959;29;19956;-62
2022/05/27 05:28:13;;;;;;;;;;;23.90;96.00;;;;;;4848857;29;19936;-61
2022/05/27 05:30:41;;;;;;;;;;;23.80;95.90;;;;;;4860124;29;19954;-61
2022/05/27 05:33:08;;;;;;;;;;;23.80;96.00;;;;;;4846409;29;19948;-62
2022/05/27 05:35:35;;;;;;;;;;;23.80;95.80;;;;;;4854259;29;19932;-60
2022/05/27 05:38:03;;;;;;;;;;;23.80;95.60;;;;;;4851444;29;19966;-60
2022/05/27 05:40:30;;;;;;;;;;;23.80;95.80;;;;;;4855867;29;19952;-58
2022/05/27 05:43:00;;;;;;;;;;;23.80;95.70;;;;;;4854222;29;19983;-63
2022/05/27 05:45:28;;;;;;;;;;;23.80;96.00;;;;;;4852894;29;20668;-64
2022/05/27 05:47:55;;;;;;;;;;;23.80;95.70;;;;;;4854335;29;19928;-63
2022/05/27 05:50:22;;;;;;;;;;;23.80;95.70;;;;;;4844920;29;19932;-62
2022/05/27 05:52:49;;;;;;;;;;;23.80;95.70;;;;;;4849933;29;19939;-62
2022/05/27 05:55:17;;;;;;;;;;;23.80;95.60;;;;;;4852427;29;19939;-63
2022/05/27 05:57:46;;;;;;;;;;;23.80;95.60;;;;;;4853328;29;19932;-62
2022/05/27 06:00:19;;;;;;;;;;;23.80;95.60;;;;;;4849667;29;20292;-63
2022/05/27 06:02:46;;;;;;;;;;;23.90;95.60;;;;;;4850025;29;19929;-61
2022/05/27 06:05:13;;;;;;;;;;;23.80;95.50;;;;;;4850365;29;20238;-61
2022/05/27 06:07:41;;;;;;;;;;;23.80;95.60;;;;;;4854819;29;19947;-62
2022/05/27 06:10:09;;;;;;;;;;;23.80;95.80;;;;;;4858772;29;19935;-63
2022/05/27 06:12:37;;;;;;;;;;;23.80;95.50;;;;;;4872629;29;19942;-61
2022/05/27 06:15:05;;;;;;;;;;;23.80;95.60;;;;;;4875544;29;19936;-62
2022/05/27 06:17:33;;;;;;;;;;;23.80;95.60;;;;;;4877951;29;20297;-61
2022/05/27 06:20:00;;;;;;;;;;;23.80;95.60;;;;;;4866033;29;19932;-64
2022/05/27 06:22:27;;;;;;;;;;;23.80;95.60;;;;;;4856589;29;19951;-63
2022/05/27 06:24:55;;;;;;;;;;;23.80;95.60;;;;;;4872213;29;19939;-63
2022/05/27 06:27:23;;;;;;;;;;;23.80;95.60;;;;;;4845837;29;19943;-63
2022/05/27 06:35:22;;;;;;;;;;;23.80;95.60;;;;;;4870482;29;20272;-62
2022/05/27 06:37:49;;;;;;;;;;;23.80;95.60;;;;;;4867266;29;19935;-65
2022/05/27 06:40:16;;;;;;;;;;;23.80;95.60;;;;;;4859925;29;19931;-65
2022/05/27 06:42:44;;;;;;;;;;;23.80;95.60;;;;;;4885058;29;19954;-64
2022/05/27 06:45:13;;;;;;;;;;;23.80;95.60;;;;;;4887653;29;20435;-65
2022/05/27 06:47:40;;;;;;;;;;;23.80;95.80;;;;;;4890138;29;19936;-63
2022/05/27 06:50:08;;;;;;;;;;;23.80;95.90;;;;;;4876283;29;19932;-65
2022/05/27 06:52:37;;;;;;;;;;;23.80;96.20;;;;;;4873996;29;19955;-64
2022/05/27 06:55:04;;;;;;;;;;;23.80;96.50;;;;;;4874662;29;19932;-64
2022/05/27 06:57:33;;;;;;;;;;;23.80;96.80;;;;;;4868934;29;20121;-63
2022/05/27 07:00:00;;;;;;;;;;;23.80;97.70;;;;;;4860971;29;20408;-63
2022/05/27 07:02:27;;;;;;;;;;;23.80;98.00;;;;;;4861692;29;19932;-63
2022/05/27 07:04:55;;;;;;;;;;;23.80;97.40;;;;;;4869402;29;19943;-64
2022/05/27 07:07:25;;;;;;;;;;;23.80;97.90;;;;;;4862020;29;19932;-62
2022/05/27 07:09:52;;;;;;;;;;;23.80;98.10;;;;;;4870028;29;19943;-63
2022/05/27 07:12:20;;;;;;;;;;;23.80;98.30;;;;;;4862126;29;19940;-60
2022/05/27 07:14:47;;;;;;;;;;;23.80;98.50;;;;;;4863488;29;19939;-60
2022/05/27 07:17:14;;;;;;;;;;;23.80;98.60;;;;;;4858941;29;19936;-64
2022/05/27 07:19:43;;;;;;;;;;;23.80;98.60;;;;;;4871716;29;21453;-63
2022/05/27 07:22:11;;;;;;;;;;;23.80;98.40;;;;;;4893300;29;20315;-60
2022/05/27 07:24:38;;;;;;;;;;;23.80;98.40;;;;;;4864330;29;19932;-61
2022/05/27 07:27:06;;;;;;;;;;;23.80;98.40;;;;;;4859758;29;19931;-60
2022/05/27 07:29:34;;;;;;;;;;;23.80;98.20;;;;;;4868938;29;19951;-62
2022/05/27 07:32:01;;;;;;;;;;;23.80;98.20;;;;;;4864165;29;19951;-61
2022/05/27 07:34:29;;;;;;;;;;;23.80;98.10;;;;;;4868085;29;19935;-62
2022/05/27 07:36:56;;;;;;;;;;;23.80;98.20;;;;;;4868082;29;19928;-63
2022/05/27 07:39:23;;;;;;;;;;;23.80;98.00;;;;;;4865339;29;20384;-63
2022/05/27 07:41:50;;;;;;;;;;;23.80;97.70;;;;;;4867893;29;19944;-63
2022/05/27 07:44:17;;;;;;;;;;;23.80;97.60;;;;;;4850375;29;19936;-63
2022/05/27 07:46:44;;;;;;;;;;;23.80;97.70;;;;;;4886679;29;19935;-64
2022/05/27 07:49:12;;;;;;;;;;;23.80;97.70;;;;;;4873329;29;19936;-60
2022/05/27 07:52:00;;;;;;;;;;;23.80;97.60;;;;;;4862475;29;20415;-57
2022/05/27 07:54:27;;;;;;;;;;;23.80;97.50;;;;;;4863498;29;19938;-63
2022/05/27 07:56:54;;;;;;;;;;;23.80;97.50;;;;;;4863724;29;19928;-60
2022/05/27 07:59:21;;;;;;;;;;;23.80;97.50;;;;;;4873551;29;19939;-62
2022/05/27 08:01:48;;;;;;;;;;;23.80;97.70;;;;;;4863180;29;19928;-62
2022/05/27 08:04:17;;;;;;;;;;;23.80;98.40;;;;;;4856218;29;19932;-59
2022/05/27 08:06:45;;;;;;;;;;;23.80;98.90;;;;;;4870645;29;19928;-63
2022/05/27 08:09:13;;;;;;;;;;;23.80;99.30;;;;;;4876790;29;19932;-63
2022/05/27 08:11:40;;;;;;;;;;;23.80;97.90;;;;;;4866293;29;20087;-62
2022/05/27 08:14:09;;;;;;;;;;;23.80;97.80;;;;;;4859313;29;19939;-63
2022/05/27 08:16:37;;;;;;;;;;;23.70;97.40;;;;;;4887161;29;19928;-55
2022/05/27 08:19:05;;;;;;;;;;;23.70;97.10;;;;;;4860267;29;20394;-60
2022/05/27 08:21:37;;;;;;;;;;;23.70;96.80;;;;;;4871298;29;20304;-61
2022/05/27 08:24:07;;;;;;;;;;;23.70;96.60;;;;;;4867931;29;19939;-62
2022/05/27 08:26:35;;;;;;;;;;;23.70;96.60;;;;;;4863451;29;19943;-63
2022/05/27 08:29:03;;;;;;;;;;;23.70;96.20;;;;;;4858185;29;19932;-64
2022/05/27 08:31:30;;;;;;;;;;;23.70;95.90;;;;;;4885477;29;20403;-63
2022/05/27 08:39:29;;;;;;;;;;;23.80;95.60;;;;;;4866515;29;19939;-65
2022/05/27 08:42:15;;;;;;;;;;;23.80;95.50;;;;;;4859276;29;20007;-64
2022/05/27 08:44:54;;;;;;;;;;;23.80;95.40;;;;;;4838667;29;19963;-62
2022/05/27 08:47:24;;;;;;;;;;;23.70;95.50;;;;;;4855935;29;19932;-64
2022/05/27 08:50:04;;;;;;;;;;;23.70;95.40;;;;;;4858986;29;20495;-57
2022/05/27 08:52:40;;;;;;;;;;;23.70;95.30;;;;;;4858336;29;20461;-63
2022/05/27 08:59:26;;;;;;;;;;;23.80;95.60;;;;;;4854490;29;20447;-65
2022/05/27 09:00:45;;;;;;;;;;;23.80;95.20;;;;;;4870721;29;19947;-63
2022/05/27 09:03:13;;;;;;;;;;;23.80;95.30;;;;;;4870953;29;19939;-63
2022/05/27 09:05:50;;;;;;;;;;;23.80;95.00;;;;;;4872450;29;20288;-61
2022/05/27 09:08:21;;;;;;;;;;;23.70;95.10;;;;;;4866268;29;19932;-64
2022/05/27 09:10:57;;;;;;;;;;;23.70;95.10;;;;;;4869434;29;20019;-62
2022/05/27 09:13:34;;;;;;;;;;;23.60;94.90;;;;;;4873012;29;19946;-63
2022/05/27 09:16:06;;;;;;;;;;;23.50;94.30;;;;;;4864336;29;20337;-57
2022/05/27 09:18:35;;;;;;;;;;;23.40;94.50;;;;;;4865632;29;19928;-61
2022/05/27 09:21:28;;;;;;;;;;;23.50;94.40;;;;;;4867480;29;20015;-58
2022/05/27 09:24:07;;;;;;;;;;;23.50;94.40;;;;;;4867665;29;19935;-59
2022/05/27 09:26:54;;;;;;;;;;;23.50;94.00;;;;;;4861807;29;20258;-59
2022/05/27 09:29:24;;;;;;;;;;;23.60;94.40;;;;;;4870718;29;19935;-58
2022/05/27 09:31:57;;;;;;;;;;;23.60;94.60;;;;;;4854712;29;19943;-57
2022/05/27 09:34:27;;;;;;;;;;;23.70;94.70;;;;;;4865207;29;19935;-56
2022/05/27 09:36:55;;;;;;;;;;;23.80;94.40;;;;;;4869485;29;20325;-56
2022/05/27 09:39:24;;;;;;;;;;;23.80;94.10;;;;;;4871218;29;19948;-59
2022/05/27 09:41:55;;;;;;;;;;;23.70;93.70;;;;;;4869327;29;19940;-59
2022/05/27 09:44:34;;;;;;;;;;;23.70;93.10;;;;;;4869581;29;19955;-56
2022/05/27 09:47:03;;;;;;;;;;;23.60;93.20;;;;;;4874270;29;19932;-60
2022/05/27 09:49:31;;;;;;;;;;;23.60;92.90;;;;;;4871592;29;19928;-59
2022/05/27 09:51:59;;;;;;;;;;;23.60;93.00;;;;;;4873375;29;19955;-58
2022/05/27 09:54:37;;;;;;;;;;;23.60;92.90;;;;;;4873804;29;19941;-61
2022/05/27 09:57:10;;;;;;;;;;;23.60;92.70;;;;;;4871093;29;20421;-58
2022/05/27 09:59:37;;;;;;;;;;;23.70;92.70;;;;;;4869383;29;19932;-60
2022/05/27 10:02:13;;;;;;;;;;;23.70;92.80;;;;;;4875034;29;19962;-62
2022/05/27 10:04:53;;;;;;;;;;;23.70;92.80;;;;;;4863380;29;20315;-60
2022/05/27 10:07:24;;;;;;;;;;;23.70;92.80;;;;;;4871219;29;19931;-60
2022/05/27 10:09:52;;;;;;;;;;;23.70;92.80;;;;;;4872524;29;20241;-57
2022/05/27 10:12:30;;;;;;;;;;;23.70;93.40;;;;;;4853715;29;19931;-59
2022/05/27 10:14:58;;;;;;;;;;;23.70;93.30;;;;;;4872475;29;19939;-62
2022/05/27 10:17:27;;;;;;;;;;;23.70;93.50;;;;;;4852739;29;20008;-61
2022/05/27 10:20:12;;;;;;;;;;;23.70;93.50;;;;;;4871277;29;19948;-59
2022/05/27 10:22:40;;;;;;;;;;;23.70;93.60;;;;;;4870935;29;19927;-60
2022/05/27 10:25:11;;;;;;;;;;;23.70;93.60;;;;;;4868305;29;19932;-61
2022/05/27 10:27:40;;;;;;;;;;;23.70;93.60;;;;;;4852968;29;19928;-57
2022/05/27 10:30:08;;;;;;;;;;;23.70;93.70;;;;;;4871404;29;19931;-59
2022/05/27 10:32:39;;;;;;;;;;;23.70;93.70;;;;;;4870497;29;19932;-62
2022/05/27 10:35:07;;;;;;;;;;;23.70;93.70;;;;;;4860553;29;20320;-61
2022/05/27 10:37:44;;;;;;;;;;;23.80;93.80;;;;;;4876970;29;19932;-61
2022/05/27 10:40:20;;;;;;;;;;;23.70;93.80;;;;;;4858643;29;19942;-60
2022/05/27 10:43:06;;;;;;;;;;;23.80;93.80;;;;;;4876695;29;19996;-61
2022/05/27 10:45:43;;;;;;;;;;;23.80;93.80;;;;;;4879891;29;19946;-62
2022/05/27 10:48:33;;;;;;;;;;;23.80;93.80;;;;;;4887163;29;19931;-61
2022/05/27 10:51:17;;;;;;;;;;;23.80;93.90;;;;;;4882140;29;20418;-61
2022/05/27 10:53:53;;;;;;;;;;;23.80;93.90;;;;;;4874154;29;20319;-60
2022/05/27 10:56:23;;;;;;;;;;;23.80;93.90;;;;;;4858145;29;19932;-60
2022/05/27 11:02:04;;;;;;;;;;;23.80;93.90;;;;;;4873106;29;19932;-60
2022/05/27 11:04:49;;;;;;;;;;;23.80;93.90;;;;;;4872182;29;20033;-58
2022/05/27 11:07:22;;;;;;;;;;;23.90;93.90;;;;;;4871003;29;20443;-60
2022/05/27 11:09:50;;;;;;;;;;;23.90;93.90;;;;;;4873462;29;19939;-59
2022/05/27 11:15:34;;;;;;;;;;;23.90;94.00;;;;;;4869903;29;19932;-60
2022/05/27 11:18:20;;;;;;;;;;;23.80;94.00;;;;;;4857338;29;19931;-60
2022/05/27 11:20:56;;;;;;;;;;;23.90;94.00;;;;;;4871969;29;20316;-59
2022/05/27 11:23:32;;;;;;;;;;;23.90;94.10;;;;;;4859512;29;19928;-59
2022/05/27 11:26:06;;;;;;;;;;;23.80;94.00;;;;;;4873261;29;19947;-59
2022/05/27 11:28:48;;;;;;;;;;;23.90;94.10;;;;;;4861582;29;19947;-60
2022/05/27 11:31:25;;;;;;;;;;;23.80;94.10;;;;;;4869989;29;19932;-60
2022/05/27 11:33:52;;;;;;;;;;;23.90;94.10;;;;;;4866067;29;19939;-60
2022/05/27 11:36:26;;;;;;;;;;;23.90;94.10;;;;;;4873131;29;19932;-64
2022/05/27 11:38:56;;;;;;;;;;;23.90;94.10;;;;;;4860024;29;19947;-60
2022/05/27 11:41:27;;;;;;;;;;;23.90;94.20;;;;;;4873611;29;19935;-59
2022/05/27 11:44:13;;;;;;;;;;;23.90;94.10;;;;;;4873644;29;19999;-58
2022/05/27 11:46:58;;;;;;;;;;;23.90;94.00;;;;;;4871671;29;19943;-60
2022/05/27 11:49:35;;;;;;;;;;;23.90;94.00;;;;;;4876002;29;20383;-60
2022/05/27 11:52:09;;;;;;;;;;;23.80;94.00;;;;;;4877391;29;19983;-58
2022/05/27 11:54:42;;;;;;;;;;;23.80;94.10;;;;;;4876340;29;19935;-58
2022/05/27 11:57:27;;;;;;;;;;;23.80;94.10;;;;;;4875556;29;20312;-61
2022/05/27 11:59:54;;;;;;;;;;;23.80;94.70;;;;;;4872526;29;19955;-57
2022/05/27 12:02:21;;;;;;;;;;;23.80;94.70;;;;;;4871389;29;19932;-58
2022/05/27 12:04:52;;;;;;;;;;;23.90;94.90;;;;;;4874911;29;19935;-67
2022/05/27 12:07:31;;;;;;;;;;;23.90;95.10;;;;;;4873548;29;19946;-62
2022/05/27 12:10:11;;;;;;;;;;;23.90;95.00;;;;;;4875806;29;19932;-60
2022/05/27 12:12:59;;;;;;;;;;;23.90;95.00;;;;;;4871055;29;19935;-58
2022/05/27 12:15:35;;;;;;;;;;;23.90;95.00;;;;;;4874837;29;19932;-61
2022/05/27 12:18:07;;;;;;;;;;;23.90;95.10;;;;;;4853382;29;19929;-57
2022/05/27 12:20:36;;;;;;;;;;;23.90;94.90;;;;;;4873239;29;19931;-59
2022/05/27 12:23:05;;;;;;;;;;;23.90;94.70;;;;;;4875214;29;19932;-60
2022/05/27 12:25:36;;;;;;;;;;;23.90;94.70;;;;;;4874771;29;20292;-61
2022/05/27 12:28:04;;;;;;;;;;;23.90;95.00;;;;;;4874591;29;19932;-60
2022/05/27 12:30:33;;;;;;;;;;;23.90;95.10;;;;;;4872471;29;19932;-59
2022/05/27 12:33:01;;;;;;;;;;;23.90;95.00;;;;;;4867340;29;20454;-58
2022/05/27 12:35:34;;;;;;;;;;;24.00;95.10;;;;;;4866433;29;19936;-60
2022/05/27 12:38:01;;;;;;;;;;;24.00;95.20;;;;;;4858300;29;19940;-59
2022/05/27 12:40:29;;;;;;;;;;;24.00;95.20;;;;;;4870608;29;19932;-59
2022/05/27 12:42:59;;;;;;;;;;;24.00;95.30;;;;;;4857647;29;19962;-58
2022/05/27 12:45:46;;;;;;;;;;;24.00;95.30;;;;;;4865888;29;19927;-59
2022/05/27 12:48:25;;;;;;;;;;;24.00;95.30;;;;;;4871624;29;19929;-62
2022/05/27 12:51:11;;;;;;;;;;;24.00;95.40;;;;;;4881609;29;19932;-62
2022/05/27 12:53:43;;;;;;;;;;;24.00;95.40;;;;;;4845272;29;20538;-58
2022/05/27 13:02:16;;;;;;;;;;;23.90;94.90;;;;;;4870492;29;20300;-58
2022/05/27 13:04:44;;;;;;;;;;;23.90;94.60;;;;;;4852209;29;20399;-59
2022/05/27 13:07:11;;;;;;;;;;;23.80;94.40;;;;;;4878617;29;19974;-57
2022/05/27 13:09:42;;;;;;;;;;;23.90;94.40;;;;;;4871550;29;19939;-58
2022/05/27 13:12:13;;;;;;;;;;;23.90;94.10;;;;;;4863847;29;19928;-55
2022/05/27 13:14:43;;;;;;;;;;;23.90;93.90;;;;;;4873782;29;19939;-58
2022/05/27 13:17:21;;;;;;;;;;;23.90;93.70;;;;;;4863589;29;19928;-57
2022/05/27 13:19:51;;;;;;;;;;;23.90;93.50;;;;;;4865212;29;19939;-60
2022/05/27 13:22:57;;;;;;;;;;;23.90;93.20;;;;;;4873712;29;19987;-59
2022/05/27 13:25:30;;;;;;;;;;;23.90;92.90;;;;;;4799113;29;20332;-60
2022/05/27 13:27:59;;;;;;;;;;;24.00;92.90;;;;;;4798034;29;19933;-59
2022/05/27 13:30:45;;;;;;;;;;;24.00;92.80;;;;;;4798347;29;20171;-61
2022/05/27 13:33:13;;;;;;;;;;;23.90;92.80;;;;;;4797464;29;19933;-60
2022/05/27 13:35:44;;;;;;;;;;;24.00;92.70;;;;;;4799866;29;19929;-60
2022/05/27 13:38:13;;;;;;;;;;;24.00;92.60;;;;;;4769486;29;20024;-61
2022/05/27 13:40:40;;;;;;;;;;;24.00;92.50;;;;;;4798861;29;20009;-57
2022/05/27 13:43:18;;;;;;;;;;;24.00;92.30;;;;;;4794059;29;20365;-58
2022/05/27 13:46:03;;;;;;;;;;;24.10;92.20;;;;;;4798225;29;20370;-60
2022/05/27 13:48:34;;;;;;;;;;;24.20;92.10;;;;;;4799566;29;20468;-59
2022/05/27 13:51:08;;;;;;;;;;;24.20;92.00;;;;;;4798486;29;19989;-57
2022/05/27 13:53:36;;;;;;;;;;;24.20;91.80;;;;;;4794097;29;20029;-59
2022/05/27 13:56:37;;;;;;;;;;;24.20;91.70;;;;;;4829550;29;19955;-60
2022/05/27 13:59:05;;;;;;;;;;;24.20;91.40;;;;;;4871228;29;19928;-60
2022/05/27 14:01:35;;;;;;;;;;;24.30;91.00;;;;;;4871850;29;19932;-60
2022/05/27 14:04:21;;;;;;;;;;;24.30;91.20;;;;;;4849863;29;19958;-60
2022/05/27 14:06:49;;;;;;;;;;;24.40;91.20;;;;;;4871393;29;20400;-60
2022/05/27 14:09:18;;;;;;;;;;;24.50;91.10;;;;;;4862813;29;19950;-58
2022/05/27 14:11:49;;;;;;;;;;;24.60;91.10;;;;;;4866006;29;19944;-62
2022/05/27 14:14:21;;;;;;;;;;;24.50;90.80;;;;;;4856208;29;19932;-58
2022/05/27 14:16:48;;;;;;;;;;;24.50;90.40;;;;;;4845848;29;20962;-60
2022/05/27 14:19:17;;;;;;;;;;;24.50;90.00;;;;;;4856718;29;19951;-60
2022/05/27 14:24:33;;;;;;;;;;;24.50;88.40;;;;;;4856931;29;19929;-59
2022/05/27 14:27:01;;;;;;;;;;;24.50;87.60;;;;;;4868135;29;19934;-61
2022/05/27 14:29:29;;;;;;;;;;;24.50;87.40;;;;;;4871153;29;19936;-60
2022/05/27 14:32:02;;;;;;;;;;;24.60;87.60;;;;;;4860293;29;19932;-60
2022/05/27 14:34:32;;;;;;;;;;;24.50;87.60;;;;;;4855168;29;19939;-59
2022/05/27 14:37:10;;;;;;;;;;;24.50;87.70;;;;;;4872948;29;19931;-58
2022/05/27 14:39:37;;;;;;;;;;;24.50;87.90;;;;;;4868790;29;19932;-58
2022/05/27 14:42:05;;;;;;;;;;;24.40;88.10;;;;;;4861275;29;19932;-60
2022/05/27 14:44:40;;;;;;;;;;;24.40;88.40;;;;;;4870336;29;20324;-60
2022/05/27 14:47:09;;;;;;;;;;;24.40;88.80;;;;;;4856605;29;19931;-59
2022/05/27 14:49:48;;;;;;;;;;;24.30;90.80;;;;;;4872780;29;19928;-57
2022/05/27 14:52:21;;;;;;;;;;;24.40;90.50;;;;;;4870985;29;19928;-61
2022/05/27 14:54:52;;;;;;;;;;;24.30;90.20;;;;;;4868260;29;20312;-56
2022/05/27 14:57:19;;;;;;;;;;;24.30;89.30;;;;;;4873033;29;20292;-58
2022/05/27 14:59:56;;;;;;;;;;;24.30;89.30;;;;;;4871056;29;20376;-60
2022/05/27 15:02:25;;;;;;;;;;;24.30;89.00;;;;;;4855184;29;19932;-59
2022/05/27 15:04:57;;;;;;;;;;;24.30;88.90;;;;;;4873390;29;20344;-60
2022/05/27 15:07:30;;;;;;;;;;;24.20;89.30;;;;;;4872794;29;19928;-58
2022/05/27 15:10:02;;;;;;;;;;;24.20;88.40;;;;;;4874366;29;20006;-61